sensor_id;sensor_type;location;lat;lon;timestamp;P1;durP1;ratioP1;P2;durP2;ratioP2
18066;SDS011;9158;51.528;7.192;2023-01-29T00:00:21;32.63;;;21.80;;
18066;SDS011;9158;51.528;7.192;2023-01-29T00:00:52;37.00;;;23.83;;
18066;SDS011;9158;51.528;7.192;2023-01-29T00:01:23;39.92;;;21.60;;
18066;SDS011;9158;51.528;7.192;2023-01-29T00:01:55;36.45;;;21.00;;
18066;SDS011;9158;51.528;7.192;2023-01-29T00:02:26;38.33;;;23.80;;
18066;SDS011;9158;51.528;7.192;2023-01-29T00:02:58;33.95;;;20.88;;
18066;SDS011;9158;51.528;7.192;2023-01-29T00:03:29;42.25;;;22.73;;
18066;SDS011;9158;51.528;7.192;2023-01-29T00:04:00;37.70;;;22.30;;
18066;SDS011;9158;51.528;7.192;2023-01-29T00:04:32;37.50;;;23.55;;
18066;SDS011;9158;51.528;7.192;2023-01-29T00:05:03;40.42;;;26.10;;
18066;SDS011;9158;51.528;7.192;2023-01-29T00:05:35;40.95;;;25.55;;
18066;SDS011;9158;51.528;7.192;2023-01-29T00:06:09;41.28;;;26.70;;
18066;SDS011;9158;51.528;7.192;2023-01-29T00:06:41;43.45;;;26.33;;
18066;SDS011;9158;51.528;7.192;2023-01-29T00:07:13;37.85;;;25.45;;
18066;SDS011;9158;51.528;7.192;2023-01-29T00:07:45;41.90;;;22.90;;
18066;SDS011;9158;51.528;7.192;2023-01-29T00:08:15;46.38;;;26.27;;
18066;SDS011;9158;51.528;7.192;2023-01-29T00:08:46;38.75;;;24.85;;
18066;SDS011;9158;51.528;7.192;2023-01-29T00:09:18;34.25;;;22.75;;
18066;SDS011;9158;51.528;7.192;2023-01-29T00:09:49;40.55;;;24.02;;
18066;SDS011;9158;51.528;7.192;2023-01-29T00:10:20;36.58;;;22.67;;
18066;SDS011;9158;51.528;7.192;2023-01-29T00:10:52;38.92;;;23.33;;
18066;SDS011;9158;51.528;7.192;2023-01-29T00:11:30;36.83;;;22.85;;
18066;SDS011;9158;51.528;7.192;2023-01-29T00:12:01;41.75;;;22.35;;
18066;SDS011;9158;51.528;7.192;2023-01-29T00:12:33;46.92;;;24.33;;
18066;SDS011;9158;51.528;7.192;2023-01-29T00:13:04;38.30;;;24.15;;
18066;SDS011;9158;51.528;7.192;2023-01-29T00:13:35;43.22;;;24.95;;
18066;SDS011;9158;51.528;7.192;2023-01-29T00:14:06;46.00;;;27.13;;
18066;SDS011;9158;51.528;7.192;2023-01-29T00:14:38;43.00;;;26.10;;
18066;SDS011;9158;51.528;7.192;2023-01-29T00:15:09;67.07;;;31.15;;
18066;SDS011;9158;51.528;7.192;2023-01-29T00:15:40;76.88;;;39.28;;
18066;SDS011;9158;51.528;7.192;2023-01-29T00:16:13;87.55;;;40.05;;
18066;SDS011;9158;51.528;7.192;2023-01-29T00:16:44;86.35;;;39.65;;
18066;SDS011;9158;51.528;7.192;2023-01-29T00:17:15;89.85;;;44.70;;
18066;SDS011;9158;51.528;7.192;2023-01-29T00:17:47;92.40;;;42.15;;
18066;SDS011;9158;51.528;7.192;2023-01-29T00:18:18;86.20;;;42.10;;
18066;SDS011;9158;51.528;7.192;2023-01-29T00:18:49;70.35;;;36.45;;
18066;SDS011;9158;51.528;7.192;2023-01-29T00:19:21;67.70;;;36.35;;
18066;SDS011;9158;51.528;7.192;2023-01-29T00:19:52;59.22;;;34.72;;
18066;SDS011;9158;51.528;7.192;2023-01-29T00:20:23;72.93;;;37.45;;
18066;SDS011;9158;51.528;7.192;2023-01-29T00:20:55;60.22;;;33.65;;
18066;SDS011;9158;51.528;7.192;2023-01-29T00:21:27;69.10;;;34.85;;
18066;SDS011;9158;51.528;7.192;2023-01-29T00:22:00;66.35;;;33.40;;
18066;SDS011;9158;51.528;7.192;2023-01-29T00:22:32;56.70;;;32.58;;
18066;SDS011;9158;51.528;7.192;2023-01-29T00:23:03;65.82;;;34.13;;
18066;SDS011;9158;51.528;7.192;2023-01-29T00:23:34;67.85;;;35.33;;
18066;SDS011;9158;51.528;7.192;2023-01-29T00:24:06;60.58;;;33.67;;
18066;SDS011;9158;51.528;7.192;2023-01-29T00:24:37;61.63;;;32.85;;
18066;SDS011;9158;51.528;7.192;2023-01-29T00:25:08;55.13;;;29.80;;
18066;SDS011;9158;51.528;7.192;2023-01-29T00:25:41;50.22;;;27.23;;
18066;SDS011;9158;51.528;7.192;2023-01-29T00:26:12;53.28;;;30.02;;
18066;SDS011;9158;51.528;7.192;2023-01-29T00:26:47;44.78;;;27.00;;
18066;SDS011;9158;51.528;7.192;2023-01-29T00:27:20;51.50;;;29.13;;
18066;SDS011;9158;51.528;7.192;2023-01-29T00:27:51;48.60;;;26.98;;
18066;SDS011;9158;51.528;7.192;2023-01-29T00:28:22;42.08;;;24.85;;
18066;SDS011;9158;51.528;7.192;2023-01-29T00:28:54;42.83;;;24.83;;
18066;SDS011;9158;51.528;7.192;2023-01-29T00:29:26;40.60;;;23.40;;
18066;SDS011;9158;51.528;7.192;2023-01-29T00:29:57;36.85;;;21.70;;
18066;SDS011;9158;51.528;7.192;2023-01-29T00:30:42;41.92;;;23.27;;
18066;SDS011;9158;51.528;7.192;2023-01-29T00:31:13;38.97;;;22.92;;
18066;SDS011;9158;51.528;7.192;2023-01-29T00:31:47;32.03;;;20.67;;
18066;SDS011;9158;51.528;7.192;2023-01-29T00:32:19;39.50;;;21.92;;
18066;SDS011;9158;51.528;7.192;2023-01-29T00:32:50;39.35;;;21.65;;
18066;SDS011;9158;51.528;7.192;2023-01-29T00:33:22;39.55;;;21.60;;
18066;SDS011;9158;51.528;7.192;2023-01-29T00:33:55;39.08;;;23.27;;
18066;SDS011;9158;51.528;7.192;2023-01-29T00:34:26;36.80;;;21.15;;
18066;SDS011;9158;51.528;7.192;2023-01-29T00:34:57;46.83;;;25.73;;
18066;SDS011;9158;51.528;7.192;2023-01-29T00:35:29;36.42;;;22.60;;
18066;SDS011;9158;51.528;7.192;2023-01-29T00:36:01;38.15;;;23.83;;
18066;SDS011;9158;51.528;7.192;2023-01-29T00:36:34;35.38;;;21.80;;
18066;SDS011;9158;51.528;7.192;2023-01-29T00:37:06;40.60;;;21.75;;
18066;SDS011;9158;51.528;7.192;2023-01-29T00:37:38;37.90;;;22.85;;
18066;SDS011;9158;51.528;7.192;2023-01-29T00:38:09;35.95;;;20.80;;
18066;SDS011;9158;51.528;7.192;2023-01-29T00:38:41;37.80;;;22.30;;
18066;SDS011;9158;51.528;7.192;2023-01-29T00:39:11;35.33;;;22.50;;
18066;SDS011;9158;51.528;7.192;2023-01-29T00:39:42;40.38;;;23.40;;
18066;SDS011;9158;51.528;7.192;2023-01-29T00:40:15;39.83;;;22.42;;
18066;SDS011;9158;51.528;7.192;2023-01-29T00:40:46;41.60;;;23.45;;
18066;SDS011;9158;51.528;7.192;2023-01-29T00:41:36;35.90;;;21.98;;
18066;SDS011;9158;51.528;7.192;2023-01-29T00:42:25;34.47;;;19.58;;
18066;SDS011;9158;51.528;7.192;2023-01-29T00:43:15;42.33;;;21.95;;
18066;SDS011;9158;51.528;7.192;2023-01-29T00:44:05;35.45;;;18.65;;
18066;SDS011;9158;51.528;7.192;2023-01-29T00:44:55;29.85;;;17.20;;
18066;SDS011;9158;51.528;7.192;2023-01-29T00:45:30;35.17;;;19.27;;
18066;SDS011;9158;51.528;7.192;2023-01-29T00:46:01;35.40;;;20.48;;
18066;SDS011;9158;51.528;7.192;2023-01-29T00:46:32;35.17;;;20.27;;
18066;SDS011;9158;51.528;7.192;2023-01-29T00:47:04;37.45;;;21.90;;
18066;SDS011;9158;51.528;7.192;2023-01-29T00:47:57;45.75;;;26.77;;
18066;SDS011;9158;51.528;7.192;2023-01-29T00:48:28;47.88;;;26.90;;
18066;SDS011;9158;51.528;7.192;2023-01-29T00:49:00;40.67;;;24.55;;
18066;SDS011;9158;51.528;7.192;2023-01-29T00:49:31;47.33;;;29.60;;
18066;SDS011;9158;51.528;7.192;2023-01-29T00:50:02;44.33;;;26.08;;
18066;SDS011;9158;51.528;7.192;2023-01-29T00:50:36;43.97;;;25.25;;
18066;SDS011;9158;51.528;7.192;2023-01-29T00:51:07;43.15;;;24.60;;
18066;SDS011;9158;51.528;7.192;2023-01-29T00:51:39;42.80;;;24.00;;
18066;SDS011;9158;51.528;7.192;2023-01-29T00:52:11;38.10;;;24.38;;
18066;SDS011;9158;51.528;7.192;2023-01-29T00:52:54;39.20;;;23.02;;
18066;SDS011;9158;51.528;7.192;2023-01-29T00:53:25;41.35;;;22.77;;
18066;SDS011;9158;51.528;7.192;2023-01-29T00:53:58;43.58;;;25.10;;
18066;SDS011;9158;51.528;7.192;2023-01-29T00:54:29;53.67;;;28.98;;
18066;SDS011;9158;51.528;7.192;2023-01-29T00:54:59;51.78;;;32.08;;
18066;SDS011;9158;51.528;7.192;2023-01-29T00:55:32;50.72;;;29.75;;
18066;SDS011;9158;51.528;7.192;2023-01-29T00:56:03;42.92;;;26.73;;
18066;SDS011;9158;51.528;7.192;2023-01-29T00:56:35;43.70;;;24.55;;
18066;SDS011;9158;51.528;7.192;2023-01-29T00:57:07;40.47;;;22.80;;
18066;SDS011;9158;51.528;7.192;2023-01-29T00:57:38;38.40;;;23.98;;
18066;SDS011;9158;51.528;7.192;2023-01-29T00:58:11;39.13;;;23.73;;
18066;SDS011;9158;51.528;7.192;2023-01-29T00:58:42;44.10;;;23.85;;
18066;SDS011;9158;51.528;7.192;2023-01-29T00:59:13;43.13;;;25.73;;
18066;SDS011;9158;51.528;7.192;2023-01-29T00:59:45;41.00;;;22.98;;
18066;SDS011;9158;51.528;7.192;2023-01-29T01:00:17;41.47;;;22.58;;
18066;SDS011;9158;51.528;7.192;2023-01-29T01:00:49;38.90;;;23.67;;
18066;SDS011;9158;51.528;7.192;2023-01-29T01:01:22;49.50;;;28.35;;
18066;SDS011;9158;51.528;7.192;2023-01-29T01:02:08;51.17;;;25.67;;
18066;SDS011;9158;51.528;7.192;2023-01-29T01:02:57;45.83;;;23.20;;
18066;SDS011;9158;51.528;7.192;2023-01-29T01:03:37;45.22;;;22.50;;
18066;SDS011;9158;51.528;7.192;2023-01-29T01:04:11;42.65;;;21.95;;
18066;SDS011;9158;51.528;7.192;2023-01-29T01:04:42;38.08;;;24.08;;
18066;SDS011;9158;51.528;7.192;2023-01-29T01:05:15;40.25;;;24.05;;
18066;SDS011;9158;51.528;7.192;2023-01-29T01:05:47;38.05;;;21.52;;
18066;SDS011;9158;51.528;7.192;2023-01-29T01:06:18;33.45;;;21.23;;
18066;SDS011;9158;51.528;7.192;2023-01-29T01:06:51;39.90;;;22.60;;
18066;SDS011;9158;51.528;7.192;2023-01-29T01:07:22;37.10;;;19.92;;
18066;SDS011;9158;51.528;7.192;2023-01-29T01:07:54;41.92;;;22.88;;
18066;SDS011;9158;51.528;7.192;2023-01-29T01:08:28;35.30;;;21.05;;
18066;SDS011;9158;51.528;7.192;2023-01-29T01:09:18;35.55;;;19.63;;
18066;SDS011;9158;51.528;7.192;2023-01-29T01:10:08;35.10;;;20.33;;
18066;SDS011;9158;51.528;7.192;2023-01-29T01:10:57;37.45;;;20.70;;
18066;SDS011;9158;51.528;7.192;2023-01-29T01:11:28;37.72;;;21.27;;
18066;SDS011;9158;51.528;7.192;2023-01-29T01:11:59;40.63;;;21.90;;
18066;SDS011;9158;51.528;7.192;2023-01-29T01:12:31;37.55;;;22.80;;
18066;SDS011;9158;51.528;7.192;2023-01-29T01:13:03;41.53;;;23.85;;
18066;SDS011;9158;51.528;7.192;2023-01-29T01:13:35;42.40;;;22.42;;
18066;SDS011;9158;51.528;7.192;2023-01-29T01:14:07;36.85;;;21.17;;
18066;SDS011;9158;51.528;7.192;2023-01-29T01:14:38;42.40;;;21.95;;
18066;SDS011;9158;51.528;7.192;2023-01-29T01:15:12;42.03;;;22.52;;
18066;SDS011;9158;51.528;7.192;2023-01-29T01:15:44;39.55;;;23.20;;
18066;SDS011;9158;51.528;7.192;2023-01-29T01:16:16;43.67;;;21.77;;
18066;SDS011;9158;51.528;7.192;2023-01-29T01:16:48;40.90;;;21.63;;
18066;SDS011;9158;51.528;7.192;2023-01-29T01:17:20;35.47;;;19.80;;
18066;SDS011;9158;51.528;7.192;2023-01-29T01:17:52;35.70;;;19.23;;
18066;SDS011;9158;51.528;7.192;2023-01-29T01:18:23;36.80;;;19.67;;
18066;SDS011;9158;51.528;7.192;2023-01-29T01:18:55;34.30;;;19.55;;
18066;SDS011;9158;51.528;7.192;2023-01-29T01:19:26;36.17;;;20.20;;
18066;SDS011;9158;51.528;7.192;2023-01-29T01:19:57;37.97;;;21.33;;
18066;SDS011;9158;51.528;7.192;2023-01-29T01:20:29;40.13;;;22.00;;
18066;SDS011;9158;51.528;7.192;2023-01-29T01:21:03;41.78;;;22.17;;
18066;SDS011;9158;51.528;7.192;2023-01-29T01:21:34;39.50;;;21.13;;
18066;SDS011;9158;51.528;7.192;2023-01-29T01:22:06;36.33;;;21.42;;
18066;SDS011;9158;51.528;7.192;2023-01-29T01:22:38;41.85;;;21.48;;
18066;SDS011;9158;51.528;7.192;2023-01-29T01:23:09;36.47;;;20.52;;
18066;SDS011;9158;51.528;7.192;2023-01-29T01:23:40;40.25;;;20.80;;
18066;SDS011;9158;51.528;7.192;2023-01-29T01:24:12;40.80;;;20.05;;
18066;SDS011;9158;51.528;7.192;2023-01-29T01:24:43;34.75;;;19.48;;
18066;SDS011;9158;51.528;7.192;2023-01-29T01:25:14;35.80;;;19.48;;
18066;SDS011;9158;51.528;7.192;2023-01-29T01:25:47;36.88;;;22.25;;
18066;SDS011;9158;51.528;7.192;2023-01-29T01:26:18;38.33;;;20.98;;
18066;SDS011;9158;51.528;7.192;2023-01-29T01:26:50;40.33;;;23.02;;
18066;SDS011;9158;51.528;7.192;2023-01-29T01:27:21;33.42;;;19.08;;
18066;SDS011;9158;51.528;7.192;2023-01-29T01:27:53;35.35;;;17.95;;
18066;SDS011;9158;51.528;7.192;2023-01-29T01:28:26;35.63;;;19.48;;
18066;SDS011;9158;51.528;7.192;2023-01-29T01:28:57;30.90;;;19.13;;
18066;SDS011;9158;51.528;7.192;2023-01-29T01:29:28;42.00;;;21.77;;
18066;SDS011;9158;51.528;7.192;2023-01-29T01:29:59;32.40;;;18.60;;
18066;SDS011;9158;51.528;7.192;2023-01-29T01:30:31;36.47;;;18.90;;
18066;SDS011;9158;51.528;7.192;2023-01-29T01:31:06;29.42;;;17.50;;
18066;SDS011;9158;51.528;7.192;2023-01-29T01:31:38;41.70;;;21.83;;
18066;SDS011;9158;51.528;7.192;2023-01-29T01:32:10;40.45;;;22.25;;
18066;SDS011;9158;51.528;7.192;2023-01-29T01:32:42;44.88;;;20.00;;
18066;SDS011;9158;51.528;7.192;2023-01-29T01:33:13;43.75;;;22.30;;
18066;SDS011;9158;51.528;7.192;2023-01-29T01:33:44;35.97;;;21.48;;
18066;SDS011;9158;51.528;7.192;2023-01-29T01:34:15;40.20;;;22.13;;
18066;SDS011;9158;51.528;7.192;2023-01-29T01:34:46;37.40;;;19.45;;
18066;SDS011;9158;51.528;7.192;2023-01-29T01:35:18;38.17;;;21.23;;
18066;SDS011;9158;51.528;7.192;2023-01-29T01:35:49;37.95;;;22.10;;
18066;SDS011;9158;51.528;7.192;2023-01-29T01:36:21;40.05;;;21.25;;
18066;SDS011;9158;51.528;7.192;2023-01-29T01:36:52;41.85;;;22.17;;
18066;SDS011;9158;51.528;7.192;2023-01-29T01:37:26;39.25;;;20.90;;
18066;SDS011;9158;51.528;7.192;2023-01-29T01:37:58;40.47;;;21.70;;
18066;SDS011;9158;51.528;7.192;2023-01-29T01:38:29;38.63;;;20.75;;
18066;SDS011;9158;51.528;7.192;2023-01-29T01:39:01;37.53;;;21.65;;
18066;SDS011;9158;51.528;7.192;2023-01-29T01:39:32;47.80;;;24.23;;
18066;SDS011;9158;51.528;7.192;2023-01-29T01:40:03;40.33;;;21.35;;
18066;SDS011;9158;51.528;7.192;2023-01-29T01:40:43;41.13;;;22.77;;
18066;SDS011;9158;51.528;7.192;2023-01-29T01:41:16;40.67;;;20.52;;
18066;SDS011;9158;51.528;7.192;2023-01-29T01:41:49;44.58;;;22.15;;
18066;SDS011;9158;51.528;7.192;2023-01-29T01:42:22;42.47;;;21.88;;
18066;SDS011;9158;51.528;7.192;2023-01-29T01:42:59;36.92;;;20.23;;
18066;SDS011;9158;51.528;7.192;2023-01-29T01:43:45;37.00;;;20.50;;
18066;SDS011;9158;51.528;7.192;2023-01-29T01:45:25;41.58;;;19.98;;
18066;SDS011;9158;51.528;7.192;2023-01-29T01:45:58;39.83;;;20.88;;
18066;SDS011;9158;51.528;7.192;2023-01-29T01:46:30;41.85;;;22.15;;
18066;SDS011;9158;51.528;7.192;2023-01-29T01:47:03;42.55;;;21.25;;
18066;SDS011;9158;51.528;7.192;2023-01-29T01:47:34;42.08;;;21.73;;
18066;SDS011;9158;51.528;7.192;2023-01-29T01:48:09;45.28;;;21.60;;
18066;SDS011;9158;51.528;7.192;2023-01-29T01:48:46;47.22;;;21.55;;
18066;SDS011;9158;51.528;7.192;2023-01-29T01:49:20;44.63;;;22.60;;
18066;SDS011;9158;51.528;7.192;2023-01-29T01:49:53;38.88;;;21.08;;
18066;SDS011;9158;51.528;7.192;2023-01-29T01:50:27;37.30;;;20.42;;
18066;SDS011;9158;51.528;7.192;2023-01-29T01:51:02;41.63;;;20.58;;
18066;SDS011;9158;51.528;7.192;2023-01-29T01:51:37;45.88;;;22.60;;
18066;SDS011;9158;51.528;7.192;2023-01-29T01:52:11;40.85;;;21.65;;
18066;SDS011;9158;51.528;7.192;2023-01-29T01:52:48;41.22;;;22.45;;
18066;SDS011;9158;51.528;7.192;2023-01-29T01:53:24;38.25;;;21.50;;
18066;SDS011;9158;51.528;7.192;2023-01-29T01:53:59;37.42;;;18.95;;
18066;SDS011;9158;51.528;7.192;2023-01-29T01:54:32;36.17;;;19.08;;
18066;SDS011;9158;51.528;7.192;2023-01-29T01:55:05;42.53;;;22.90;;
18066;SDS011;9158;51.528;7.192;2023-01-29T01:55:39;36.55;;;19.70;;
18066;SDS011;9158;51.528;7.192;2023-01-29T01:56:14;38.10;;;19.65;;
18066;SDS011;9158;51.528;7.192;2023-01-29T01:56:52;33.60;;;19.80;;
18066;SDS011;9158;51.528;7.192;2023-01-29T01:57:25;37.08;;;20.17;;
18066;SDS011;9158;51.528;7.192;2023-01-29T01:57:58;40.35;;;21.95;;
18066;SDS011;9158;51.528;7.192;2023-01-29T01:58:37;36.72;;;19.70;;
18066;SDS011;9158;51.528;7.192;2023-01-29T01:59:13;35.35;;;19.30;;
18066;SDS011;9158;51.528;7.192;2023-01-29T01:59:47;39.83;;;20.50;;
18066;SDS011;9158;51.528;7.192;2023-01-29T02:00:26;36.42;;;19.52;;
18066;SDS011;9158;51.528;7.192;2023-01-29T02:00:57;36.83;;;20.17;;
18066;SDS011;9158;51.528;7.192;2023-01-29T02:01:28;43.50;;;20.63;;
18066;SDS011;9158;51.528;7.192;2023-01-29T02:02:00;36.78;;;19.30;;
18066;SDS011;9158;51.528;7.192;2023-01-29T02:02:50;36.47;;;17.92;;
18066;SDS011;9158;51.528;7.192;2023-01-29T02:03:40;34.15;;;19.02;;
18066;SDS011;9158;51.528;7.192;2023-01-29T02:04:32;38.78;;;18.67;;
18066;SDS011;9158;51.528;7.192;2023-01-29T02:05:22;34.92;;;15.88;;
18066;SDS011;9158;51.528;7.192;2023-01-29T02:06:13;37.63;;;19.52;;
18066;SDS011;9158;51.528;7.192;2023-01-29T02:07:02;36.83;;;18.77;;
18066;SDS011;9158;51.528;7.192;2023-01-29T02:07:56;37.28;;;19.77;;
18066;SDS011;9158;51.528;7.192;2023-01-29T02:08:48;30.80;;;17.02;;
18066;SDS011;9158;51.528;7.192;2023-01-29T02:09:45;35.75;;;17.90;;
18066;SDS011;9158;51.528;7.192;2023-01-29T02:10:21;31.00;;;18.85;;
18066;SDS011;9158;51.528;7.192;2023-01-29T02:10:52;38.20;;;20.70;;
18066;SDS011;9158;51.528;7.192;2023-01-29T02:11:24;32.85;;;18.90;;
18066;SDS011;9158;51.528;7.192;2023-01-29T02:11:56;32.35;;;17.90;;
18066;SDS011;9158;51.528;7.192;2023-01-29T02:12:27;34.50;;;20.10;;
18066;SDS011;9158;51.528;7.192;2023-01-29T02:13:01;39.67;;;20.17;;
18066;SDS011;9158;51.528;7.192;2023-01-29T02:13:34;45.42;;;21.77;;
18066;SDS011;9158;51.528;7.192;2023-01-29T02:14:06;32.53;;;19.70;;
18066;SDS011;9158;51.528;7.192;2023-01-29T02:14:38;38.70;;;20.65;;
18066;SDS011;9158;51.528;7.192;2023-01-29T02:15:12;37.28;;;20.77;;
18066;SDS011;9158;51.528;7.192;2023-01-29T02:15:43;34.45;;;20.35;;
18066;SDS011;9158;51.528;7.192;2023-01-29T02:16:16;36.08;;;20.83;;
18066;SDS011;9158;51.528;7.192;2023-01-29T02:16:48;39.17;;;21.40;;
18066;SDS011;9158;51.528;7.192;2023-01-29T02:17:19;36.17;;;19.17;;
18066;SDS011;9158;51.528;7.192;2023-01-29T02:17:51;44.15;;;21.25;;
18066;SDS011;9158;51.528;7.192;2023-01-29T02:18:22;33.95;;;19.25;;
18066;SDS011;9158;51.528;7.192;2023-01-29T02:18:53;30.38;;;19.13;;
18066;SDS011;9158;51.528;7.192;2023-01-29T02:19:27;38.45;;;20.85;;
18066;SDS011;9158;51.528;7.192;2023-01-29T02:20:12;38.25;;;18.63;;
18066;SDS011;9158;51.528;7.192;2023-01-29T02:20:52;36.80;;;19.75;;
18066;SDS011;9158;51.528;7.192;2023-01-29T02:21:49;35.30;;;18.55;;
18066;SDS011;9158;51.528;7.192;2023-01-29T02:23:44;36.17;;;18.83;;
18066;SDS011;9158;51.528;7.192;2023-01-29T02:24:33;32.20;;;17.70;;
18066;SDS011;9158;51.528;7.192;2023-01-29T02:25:35;37.47;;;18.50;;
18066;SDS011;9158;51.528;7.192;2023-01-29T02:26:24;39.67;;;16.80;;
18066;SDS011;9158;51.528;7.192;2023-01-29T02:27:18;24.48;;;14.38;;
18066;SDS011;9158;51.528;7.192;2023-01-29T02:28:00;30.38;;;17.17;;
18066;SDS011;9158;51.528;7.192;2023-01-29T02:29:00;30.17;;;14.65;;
18066;SDS011;9158;51.528;7.192;2023-01-29T02:29:53;31.08;;;16.50;;
18066;SDS011;9158;51.528;7.192;2023-01-29T02:30:32;33.50;;;19.10;;
18066;SDS011;9158;51.528;7.192;2023-01-29T02:31:10;37.22;;;20.00;;
18066;SDS011;9158;51.528;7.192;2023-01-29T02:31:51;40.15;;;18.00;;
18066;SDS011;9158;51.528;7.192;2023-01-29T02:32:29;41.83;;;19.33;;
18066;SDS011;9158;51.528;7.192;2023-01-29T02:33:04;31.67;;;17.75;;
18066;SDS011;9158;51.528;7.192;2023-01-29T02:33:47;33.85;;;16.65;;
18066;SDS011;9158;51.528;7.192;2023-01-29T02:34:27;36.60;;;18.25;;
18066;SDS011;9158;51.528;7.192;2023-01-29T02:35:24;35.05;;;17.33;;
18066;SDS011;9158;51.528;7.192;2023-01-29T02:36:03;37.42;;;19.52;;
18066;SDS011;9158;51.528;7.192;2023-01-29T02:36:44;41.45;;;20.00;;
18066;SDS011;9158;51.528;7.192;2023-01-29T02:37:20;34.05;;;19.58;;
18066;SDS011;9158;51.528;7.192;2023-01-29T02:38:00;33.47;;;18.58;;
18066;SDS011;9158;51.528;7.192;2023-01-29T02:38:49;38.47;;;18.50;;
18066;SDS011;9158;51.528;7.192;2023-01-29T02:39:27;34.05;;;20.13;;
18066;SDS011;9158;51.528;7.192;2023-01-29T02:40:07;33.50;;;18.05;;
18066;SDS011;9158;51.528;7.192;2023-01-29T02:40:48;36.50;;;19.42;;
18066;SDS011;9158;51.528;7.192;2023-01-29T02:41:25;32.33;;;17.08;;
18066;SDS011;9158;51.528;7.192;2023-01-29T02:42:00;35.50;;;18.70;;
18066;SDS011;9158;51.528;7.192;2023-01-29T02:42:43;34.58;;;17.75;;
18066;SDS011;9158;51.528;7.192;2023-01-29T02:43:28;37.78;;;19.27;;
18066;SDS011;9158;51.528;7.192;2023-01-29T02:44:09;33.75;;;17.73;;
18066;SDS011;9158;51.528;7.192;2023-01-29T02:44:47;36.40;;;17.90;;
18066;SDS011;9158;51.528;7.192;2023-01-29T02:45:26;34.05;;;17.42;;
18066;SDS011;9158;51.528;7.192;2023-01-29T02:46:05;35.80;;;19.35;;
18066;SDS011;9158;51.528;7.192;2023-01-29T02:46:45;31.35;;;17.85;;
18066;SDS011;9158;51.528;7.192;2023-01-29T02:47:26;40.38;;;19.83;;
18066;SDS011;9158;51.528;7.192;2023-01-29T02:48:04;39.15;;;18.50;;
18066;SDS011;9158;51.528;7.192;2023-01-29T02:48:38;31.77;;;18.92;;
18066;SDS011;9158;51.528;7.192;2023-01-29T02:49:16;34.03;;;17.95;;
18066;SDS011;9158;51.528;7.192;2023-01-29T02:49:54;34.97;;;19.88;;
18066;SDS011;9158;51.528;7.192;2023-01-29T02:50:32;34.63;;;18.50;;
18066;SDS011;9158;51.528;7.192;2023-01-29T02:51:13;34.85;;;18.30;;
18066;SDS011;9158;51.528;7.192;2023-01-29T02:51:48;38.13;;;18.52;;
18066;SDS011;9158;51.528;7.192;2023-01-29T02:52:30;31.05;;;17.55;;
18066;SDS011;9158;51.528;7.192;2023-01-29T02:53:07;37.28;;;20.65;;
18066;SDS011;9158;51.528;7.192;2023-01-29T02:53:43;35.40;;;18.63;;
18066;SDS011;9158;51.528;7.192;2023-01-29T02:54:23;32.53;;;18.45;;
18066;SDS011;9158;51.528;7.192;2023-01-29T02:55:01;35.42;;;20.15;;
18066;SDS011;9158;51.528;7.192;2023-01-29T02:55:41;33.55;;;17.75;;
18066;SDS011;9158;51.528;7.192;2023-01-29T02:56:16;35.22;;;20.02;;
18066;SDS011;9158;51.528;7.192;2023-01-29T02:56:52;39.95;;;19.40;;
18066;SDS011;9158;51.528;7.192;2023-01-29T02:57:26;36.58;;;18.50;;
18066;SDS011;9158;51.528;7.192;2023-01-29T02:58:04;35.22;;;18.15;;
18066;SDS011;9158;51.528;7.192;2023-01-29T02:58:42;38.70;;;20.33;;
18066;SDS011;9158;51.528;7.192;2023-01-29T02:59:17;49.28;;;22.00;;
18066;SDS011;9158;51.528;7.192;2023-01-29T02:59:53;36.67;;;18.70;;
18066;SDS011;9158;51.528;7.192;2023-01-29T03:00:29;37.35;;;21.10;;
18066;SDS011;9158;51.528;7.192;2023-01-29T03:01:05;37.63;;;19.58;;
18066;SDS011;9158;51.528;7.192;2023-01-29T03:01:43;41.35;;;19.45;;
18066;SDS011;9158;51.528;7.192;2023-01-29T03:02:18;37.55;;;19.17;;
18066;SDS011;9158;51.528;7.192;2023-01-29T03:02:57;42.08;;;18.98;;
18066;SDS011;9158;51.528;7.192;2023-01-29T03:03:35;36.08;;;18.55;;
18066;SDS011;9158;51.528;7.192;2023-01-29T03:04:10;41.95;;;18.55;;
18066;SDS011;9158;51.528;7.192;2023-01-29T03:04:45;40.90;;;20.42;;
18066;SDS011;9158;51.528;7.192;2023-01-29T03:05:24;43.20;;;21.75;;
18066;SDS011;9158;51.528;7.192;2023-01-29T03:06:00;43.85;;;20.30;;
18066;SDS011;9158;51.528;7.192;2023-01-29T03:06:39;44.95;;;19.98;;
18066;SDS011;9158;51.528;7.192;2023-01-29T03:07:16;39.67;;;21.65;;
18066;SDS011;9158;51.528;7.192;2023-01-29T03:08:14;33.85;;;18.92;;
18066;SDS011;9158;51.528;7.192;2023-01-29T03:08:50;38.28;;;19.40;;
18066;SDS011;9158;51.528;7.192;2023-01-29T03:09:29;40.65;;;19.95;;
18066;SDS011;9158;51.528;7.192;2023-01-29T03:10:03;46.42;;;20.60;;
18066;SDS011;9158;51.528;7.192;2023-01-29T03:10:42;42.78;;;22.73;;
18066;SDS011;9158;51.528;7.192;2023-01-29T03:11:20;34.97;;;20.05;;
18066;SDS011;9158;51.528;7.192;2023-01-29T03:11:53;41.53;;;20.42;;
18066;SDS011;9158;51.528;7.192;2023-01-29T03:12:29;48.03;;;21.23;;
18066;SDS011;9158;51.528;7.192;2023-01-29T03:13:05;42.42;;;22.95;;
18066;SDS011;9158;51.528;7.192;2023-01-29T03:13:44;39.13;;;20.10;;
18066;SDS011;9158;51.528;7.192;2023-01-29T03:14:20;32.60;;;18.65;;
18066;SDS011;9158;51.528;7.192;2023-01-29T03:14:54;37.72;;;21.05;;
18066;SDS011;9158;51.528;7.192;2023-01-29T03:15:50;37.78;;;17.55;;
18066;SDS011;9158;51.528;7.192;2023-01-29T03:16:49;42.10;;;21.92;;
18066;SDS011;9158;51.528;7.192;2023-01-29T03:17:21;36.53;;;17.58;;
18066;SDS011;9158;51.528;7.192;2023-01-29T03:17:57;40.38;;;20.50;;
18066;SDS011;9158;51.528;7.192;2023-01-29T03:18:35;45.08;;;20.23;;
18066;SDS011;9158;51.528;7.192;2023-01-29T03:19:14;37.58;;;18.98;;
18066;SDS011;9158;51.528;7.192;2023-01-29T03:19:49;46.92;;;21.35;;
18066;SDS011;9158;51.528;7.192;2023-01-29T03:20:26;41.13;;;20.80;;
18066;SDS011;9158;51.528;7.192;2023-01-29T03:21:02;36.35;;;19.17;;
18066;SDS011;9158;51.528;7.192;2023-01-29T03:21:58;42.22;;;19.90;;
18066;SDS011;9158;51.528;7.192;2023-01-29T03:22:34;41.85;;;21.90;;
18066;SDS011;9158;51.528;7.192;2023-01-29T03:23:08;44.83;;;23.38;;
18066;SDS011;9158;51.528;7.192;2023-01-29T03:23:45;39.03;;;21.50;;
18066;SDS011;9158;51.528;7.192;2023-01-29T03:24:36;41.00;;;20.20;;
18066;SDS011;9158;51.528;7.192;2023-01-29T03:25:32;41.17;;;21.25;;
18066;SDS011;9158;51.528;7.192;2023-01-29T03:26:24;37.75;;;20.55;;
18066;SDS011;9158;51.528;7.192;2023-01-29T03:27:14;43.92;;;20.95;;
18066;SDS011;9158;51.528;7.192;2023-01-29T03:28:08;37.47;;;19.77;;
18066;SDS011;9158;51.528;7.192;2023-01-29T03:29:03;33.30;;;17.75;;
18066;SDS011;9158;51.528;7.192;2023-01-29T03:29:55;35.15;;;18.42;;
18066;SDS011;9158;51.528;7.192;2023-01-29T03:31:02;41.75;;;20.90;;
18066;SDS011;9158;51.528;7.192;2023-01-29T03:32:00;41.53;;;21.75;;
18066;SDS011;9158;51.528;7.192;2023-01-29T03:32:35;40.95;;;19.83;;
18066;SDS011;9158;51.528;7.192;2023-01-29T03:33:08;45.25;;;20.17;;
18066;SDS011;9158;51.528;7.192;2023-01-29T03:33:43;45.83;;;21.75;;
18066;SDS011;9158;51.528;7.192;2023-01-29T03:34:20;43.92;;;21.60;;
18066;SDS011;9158;51.528;7.192;2023-01-29T03:34:58;41.97;;;21.58;;
18066;SDS011;9158;51.528;7.192;2023-01-29T03:35:34;48.65;;;22.20;;
18066;SDS011;9158;51.528;7.192;2023-01-29T03:36:09;42.08;;;22.10;;
18066;SDS011;9158;51.528;7.192;2023-01-29T03:36:46;39.53;;;20.83;;